Sloulin Field International Airport
KISN : now visible

Airfield :











YOU CAN JOIN US ON...

 
LOGIN :

Register | Disclaimer

   EN    FR    IT 

 









Legend :    VFR   Marginal VFR   IFR   Intensive IFR   Very Intensive IFR
Visi :
Ceiling :
>= 8 km
>= 3000ft
5 to 8 km
1000 to 3000 ft
1500m to 5 km
500 to 1000 ft
800 to 1500m
200 to 500 ft
< 800m
< 200 ft
Symbols :   Thunderstorms  Fog  Heavy snow  Heavy precipitations  Wind > 20 kt







- Airport Elevation : 1982 ft


KISN - Sloulin Field International

CURRENT METAR :
  • 201952Z AUTO 36011KT 10SM FEW110 22/16 A2973 RMK AO2 SLP059 T02220161

EXPIRED METARs :
  • 201852Z AUTO 08007KT 10SM FEW021 22/16 A2973 RMK AO2 SLP058 T02220161
  • 201752Z AUTO 04007KT 10SM CLR 21/16 A2973 RMK AO2 RAE00 SLP059 P0000 60000 T02060156 10206 20172 58020

TAF KISN
Valid from the 20 at 20:00 until the 21 at 18:00 UTC


202012Z 2020/2118 36011KT P6SM FEW110 BKN200
FM210200 34012KT P6SM VCSH OVC080
FM210900 35010KT 6SM -SHRA BR SCT030 OVC045
FM211200 34011KT 4SM SHRA BR OVC026
FM211500 32014G22KT P6SM -SHRA OVC019
No reported NOTAMs for that airfield.



MET'MAP, your aeronautical weather chart ! - Copyright ORBIFLY December 2007 - Disclaimer

ORBIFLY MET'MAP TEAM :

Programming & Development : Alexandra Zaïnal
Concept & Development : Baudouin d'Aumeries
Co-Development & Prog : Marc-Olivier Méhu
Technical & hardware support : Manuel Goepfert

Contact : metmap@orbifly.com




SOURCES & CREDITS :

   NOAA       Earth
Advisory